Polk Army Air Field
KPOE : now visible

Airfield :











YOU CAN JOIN US ON...

 
LOGIN :

Register | Disclaimer

   EN    FR    IT 

 









Legend :    VFR   Marginal VFR   IFR   Intensive IFR   Very Intensive IFR
Visi :
Ceiling :
>= 8 km
>= 3000ft
5 to 8 km
1000 to 3000 ft
1500m to 5 km
500 to 1000 ft
800 to 1500m
200 to 500 ft
< 800m
< 200 ft
Symbols :   Thunderstorms  Fog  Heavy snow  Heavy precipitations  Wind > 20 kt






- Airport Elevation : 330 ft


KPOE - Polk Army Air Field

CURRENT METAR :
  • 202158Z AUTO 17016G23KT 10SM SCT048 32/19 A2975 RMK AO2 SLP073 T03240193

EXPIRED METARs :
  • 202137Z AUTO 21017G24KT 10SM FEW045 32/20 A2975 RMK AO2 WSHFT 27 SLP073
  • 202058Z AUTO 18015G21KT 10SM SCT045 BKN055 32/21 A2975 RMK AO2 SLP073 T03210209 55005
  • 201958Z AUTO 18018G23KT 10SM SCT047 SCT060 33/21 A2975 RMK AO2 SLP072 T03260205

TAF TAF KPOE
Valid from the 20 at 18:00 until the 22 at 00:00 UTC


201800Z 2018/2124 18015G20KT 9999 SCT050 QNH2972INS
BECMG 2100/2101 17009KT 9999 SCT013 QNH2972INS
BECMG 2104/2105 15009KT 9999 BKN013 QNH2979INS
BECMG 2107/2108 16006KT 8000 BR OVC006 QNH2978INS
BECMG 2113/2114 16010G15KT 9999 NSW SCT007 QNH2988INS
BECMG 2115/2116 17015G20KT 9999 SCT015 QNH2987INS
BECMG 2118/2119 18020G25KT 6000 -SHRA BKN030 QNH2996INS TX34/2021Z TN24/2109Z
KZHU FIR / North America



MET'MAP, your aeronautical weather chart ! - Copyright ORBIFLY December 2007 - Disclaimer

ORBIFLY MET'MAP TEAM :

Programming & Development : Alexandra Zaïnal
Original concept : Baudouin d'Aumeries
Technical & hardware support : Manuel Goepfert
Assistance : Marc-Olivier Méhu

Contact : metmap@orbifly.com




SOURCES & CREDITS :

   NOAA       Earth
Advisory